Accueil
METAR-TAF:

METAR-TAF

Aéroports :

Aéroport Federico-Fellini

Rimini, Italie

latitude: 44-02N, longitude: 012-37E, altitude: 12 m

Observation

Le bulletin a été fait il y a 15 minutes, à 01:50 UTC
Vent 2 kt de sud
Température 10°C
Humidité 93%
Pression 1016 hPa
Visibilité: 1500 m
brume

METAR: LIPR 240150Z AUTO 18002KT 1500 BR NCD 10/09 Q1016

Heure: 04:05 (02:05 UTC)

Prévision

Le bulletin a été fait il y a 1 heure et 52 minutes, à 00:13 UTC
Prévision valable du 24 à 00 UTC au 24 à 09 UTC
Vent 5 kt de direction variable
Visibilité: 0400 m
Nuages fragmentés à une hauteur de 300 ft
brouillard
Evoluant progressivement
du 24 à 06 UTC au 24 à 09 UTC
Visibilité 10 km ou plus
Quelques nuages à une hauteur de 3000 ft

TAF: LIPR 240013Z 2400/2409 VRB05KT 0400 FG BKN003 BECMG 2406/2409 9999 FEW030

Observations et prévisions météorologiques de plus de 4000 aéroports (messages METAR et TAF).

Les stations disponibles sont représentées par des disques jaunes et rouges sur la carte.

Passer la souris dessus pour voir le nom de la station.

Cliquer dessus pour voir les observations et prévisions météorologiques.

Pour changer de carte: cliquez sur les boutons verts avec une croix noire pour zoomer, sur le bouton vert avec un tiret pour effectuer un zoom arrière, ou sur les flèches vertes pour les cartes adjacentes.


METAR-TAF: